Pierre, South Dakota
Current Conditions -  °F | °C
As of 4:53 AM on Friday 24 Oct 2014 (Local Time) from KPIR Reporting Station
Clear Clear  
Wind Chill: 44°   Ceiling: Unl
Heat Index: 44°   Visibility: 10mi
Dew Point: 34°   Wind: 3mph
Humidity: 68%   Direction: 260°W
Pressure: 29.85"   Gusts: NA
Location:  44.37°N, 100.35°W
Report Text: KPIR 240953Z AUTO 26003KT 10SM CLR 07/01 A2985 RMK AO2 SLP107 T00670011
Loading
Personal Weather Stations






























Interactive Weather Map New forecast layout! Learn more

10-Day Weather Forecast

Advertisements
Track Severe Weather on mobile